Time;durP1;ratioP1;P1;durP2;ratioP2;P2;SDS_P1;SDS_P2;PMS_P1;PMS_P2;Temp;Humidity;BMP_temperature;BMP_pressure;BME280_temperature;BME280_humidity;BME280_pressure;Samples;Min_cycle;Max_cycle;Signal;HPM_P1;HPM_P2
2022/10/09 00:01:00;;;;;;;;;;;11.10;99.90;;;;;;5057180;28;19916;-76
2022/10/09 00:03:26;;;;;;;;;;;11.10;99.90;;;;;;5057005;28;19912;-74
2022/10/09 00:05:51;;;;;;;;;;;11.20;99.90;;;;;;5057015;28;19909;-75
2022/10/09 00:08:17;;;;;;;;;;;11.20;99.90;;;;;;5056899;28;19971;-76
2022/10/09 00:10:43;;;;;;;;;;;11.20;99.40;;;;;;5056949;28;19909;-77
2022/10/09 00:13:09;;;;;;;;;;;11.10;99.80;;;;;;5056819;28;20392;-73
2022/10/09 00:15:38;;;;;;;;;;;11.00;99.90;;;;;;5056970;28;19913;-74
2022/10/09 00:18:04;;;;;;;;;;;10.90;99.90;;;;;;5057277;28;19952;-73
2022/10/09 00:20:30;;;;;;;;;;;10.80;99.90;;;;;;5056691;28;19970;-77
2022/10/09 00:22:55;;;;;;;;;;;10.70;99.90;;;;;;5056604;28;19909;-75
2022/10/09 00:25:21;;;;;;;;;;;10.80;99.90;;;;;;5056725;28;19915;-74
2022/10/09 00:27:46;;;;;;;;;;;10.70;99.90;;;;;;5056530;28;19909;-75
2022/10/09 00:30:12;;;;;;;;;;;10.70;99.90;;;;;;5056495;28;19913;-76
2022/10/09 00:32:37;;;;;;;;;;;10.80;99.90;;;;;;5056707;28;19909;-73
2022/10/09 00:35:03;;;;;;;;;;;10.70;99.90;;;;;;5056284;28;19919;-76
2022/10/09 00:37:29;;;;;;;;;;;10.70;99.90;;;;;;5056429;28;20439;-75
2022/10/09 00:39:54;;;;;;;;;;;10.80;99.60;;;;;;5056789;28;19909;-76
2022/10/09 00:42:20;;;;;;;;;;;10.60;99.50;;;;;;5056332;28;20363;-76
2022/10/09 00:45:01;;;;;;;;;;;10.40;99.90;;;;;;5057034;28;19909;-76
2022/10/09 00:47:32;;;;;;;;;;;10.20;99.90;;;;;;5056377;28;19962;-75
2022/10/09 00:49:59;;;;;;;;;;;10.00;99.90;;;;;;5056051;28;19921;-75
2022/10/09 00:52:25;;;;;;;;;;;10.20;99.90;;;;;;5056102;28;19909;-76
2022/10/09 00:54:52;;;;;;;;;;;10.40;99.90;;;;;;5055990;28;19917;-76
2022/10/09 00:57:18;;;;;;;;;;;10.40;99.90;;;;;;5056083;28;19913;-76
2022/10/09 00:59:43;;;;;;;;;;;10.40;99.90;;;;;;5055907;28;19915;-76
2022/10/09 01:02:09;;;;;;;;;;;10.30;99.90;;;;;;5056159;28;20338;-77
2022/10/09 01:04:35;;;;;;;;;;;10.20;99.90;;;;;;5056217;28;20374;-75
2022/10/09 01:07:14;;;;;;;;;;;10.30;99.90;;;;;;5055934;28;19913;-76
2022/10/09 01:09:39;;;;;;;;;;;10.30;99.90;;;;;;5055888;28;19966;-77
2022/10/09 01:12:14;;;;;;;;;;;10.10;99.90;;;;;;5055764;28;19996;-76
2022/10/09 01:14:49;;;;;;;;;;;10.20;99.90;;;;;;5055932;28;20298;-75
2022/10/09 01:17:33;;;;;;;;;;;10.30;99.90;;;;;;5056107;28;19909;-74
2022/10/09 01:20:11;;;;;;;;;;;10.40;99.90;;;;;;5055612;28;19909;-76
2022/10/09 01:22:37;;;;;;;;;;;10.30;99.90;;;;;;5055583;28;20280;-73
2022/10/09 01:25:06;;;;;;;;;;;10.00;99.90;;;;;;5055436;28;19909;-75
2022/10/09 01:27:33;;;;;;;;;;;10.20;99.90;;;;;;5055649;28;20401;-75
2022/10/09 01:30:00;;;;;;;;;;;10.20;99.90;;;;;;5055362;28;19909;-75
2022/10/09 01:32:32;;;;;;;;;;;10.20;99.90;;;;;;5055413;28;20399;-73
2022/10/09 01:34:58;;;;;;;;;;;10.20;99.90;;;;;;5055262;28;19916;-75
2022/10/09 01:37:24;;;;;;;;;;;10.00;99.90;;;;;;5055439;28;20386;-74
2022/10/09 01:39:50;;;;;;;;;;;10.10;99.90;;;;;;5055189;28;20007;-76
2022/10/09 01:42:17;;;;;;;;;;;10.10;99.90;;;;;;5055296;28;19909;-76
2022/10/09 01:44:43;;;;;;;;;;;10.10;99.90;;;;;;5055614;28;20412;-75
2022/10/09 01:47:13;;;;;;;;;;;10.10;99.90;;;;;;5055005;28;19951;-76
2022/10/09 01:49:43;;;;;;;;;;;10.10;99.90;;;;;;5054674;28;19921;-73
2022/10/09 01:52:38;;;;;;;;;;;10.00;99.90;;;;;;5055157;28;19909;-74
2022/10/09 01:55:22;;;;;;;;;;;9.90;99.90;;;;;;5037655;28;19912;-76
2022/10/09 01:58:00;;;;;;;;;;;9.80;99.90;;;;;;5054852;28;20043;-75
2022/10/09 02:00:27;;;;;;;;;;;9.80;99.90;;;;;;5054981;28;19909;-76
2022/10/09 02:02:53;;;;;;;;;;;9.90;99.90;;;;;;5053515;28;19915;-75
2022/10/09 02:05:22;;;;;;;;;;;9.70;99.90;;;;;;5054461;28;19916;-75
2022/10/09 02:07:47;;;;;;;;;;;9.50;99.90;;;;;;5054823;28;20011;-77
2022/10/09 02:10:14;;;;;;;;;;;9.70;99.90;;;;;;5054896;28;20404;-74
2022/10/09 02:12:42;;;;;;;;;;;9.60;99.90;;;;;;5054588;28;19909;-74
2022/10/09 02:15:08;;;;;;;;;;;9.60;99.90;;;;;;5054382;28;20341;-75
2022/10/09 02:17:35;;;;;;;;;;;9.60;99.90;;;;;;5054443;28;19909;-74
2022/10/09 02:20:27;;;;;;;;;;;9.50;99.90;;;;;;5054638;28;20343;-75
2022/10/09 02:22:54;;;;;;;;;;;9.40;99.90;;;;;;5050325;28;19908;-74
2022/10/09 02:25:20;;;;;;;;;;;9.40;99.90;;;;;;5054315;28;20373;-76
2022/10/09 02:27:46;;;;;;;;;;;9.40;99.90;;;;;;5054268;28;19909;-76
2022/10/09 02:30:13;;;;;;;;;;;9.30;99.90;;;;;;5054352;28;19916;-77
2022/10/09 02:32:38;;;;;;;;;;;8.90;99.90;;;;;;5054431;28;19998;-75
2022/10/09 02:35:04;;;;;;;;;;;8.60;99.90;;;;;;5054157;28;19972;-75
2022/10/09 02:37:29;;;;;;;;;;;8.80;99.90;;;;;;5054116;28;19920;-76
2022/10/09 02:39:55;;;;;;;;;;;9.30;99.90;;;;;;5054653;28;19909;-76
2022/10/09 02:42:21;;;;;;;;;;;9.50;99.90;;;;;;5054258;28;20289;-77
2022/10/09 02:44:46;;;;;;;;;;;9.60;99.90;;;;;;5054659;28;19913;-75
2022/10/09 02:47:12;;;;;;;;;;;9.50;99.90;;;;;;5054040;28;20349;-75
2022/10/09 02:49:38;;;;;;;;;;;9.30;99.90;;;;;;5053554;28;19921;-75
2022/10/09 02:52:03;;;;;;;;;;;9.30;99.90;;;;;;5052571;28;20292;-75
2022/10/09 02:54:29;;;;;;;;;;;9.20;99.90;;;;;;5053865;28;19908;-76
2022/10/09 02:56:55;;;;;;;;;;;9.20;99.90;;;;;;5053790;28;20281;-75
2022/10/09 02:59:20;;;;;;;;;;;9.10;99.90;;;;;;5053778;28;19909;-76
2022/10/09 03:01:46;;;;;;;;;;;9.00;99.90;;;;;;5054149;28;20381;-76
2022/10/09 03:04:11;;;;;;;;;;;9.10;99.90;;;;;;5053717;28;19916;-75
2022/10/09 03:06:37;;;;;;;;;;;9.30;99.90;;;;;;5053751;28;20003;-73
2022/10/09 03:09:03;;;;;;;;;;;9.30;99.90;;;;;;5053640;28;19996;-75
2022/10/09 03:11:28;;;;;;;;;;;9.30;99.90;;;;;;5053859;28;19909;-76
2022/10/09 03:13:54;;;;;;;;;;;9.40;99.90;;;;;;5053559;28;19917;-75
2022/10/09 03:16:22;;;;;;;;;;;9.20;99.90;;;;;;5052699;28;19917;-73
2022/10/09 03:18:48;;;;;;;;;;;9.10;99.90;;;;;;5053430;28;20298;-74
2022/10/09 03:21:15;;;;;;;;;;;9.10;99.90;;;;;;5053732;28;20297;-77
2022/10/09 03:23:41;;;;;;;;;;;9.20;99.90;;;;;;5053650;28;19909;-74
2022/10/09 03:26:08;;;;;;;;;;;9.10;99.90;;;;;;5053481;28;19920;-74
2022/10/09 03:28:35;;;;;;;;;;;9.10;99.90;;;;;;5053547;28;19909;-75
2022/10/09 03:31:01;;;;;;;;;;;9.10;99.90;;;;;;5053448;28;20399;-75
2022/10/09 03:33:26;;;;;;;;;;;9.10;99.90;;;;;;5053380;28;19992;-74
2022/10/09 03:35:52;;;;;;;;;;;9.20;99.90;;;;;;5053235;28;19917;-75
2022/10/09 03:38:17;;;;;;;;;;;9.30;99.90;;;;;;5053367;28;19909;-75
2022/10/09 03:40:43;;;;;;;;;;;9.20;99.90;;;;;;5053396;28;20288;-75
2022/10/09 03:43:09;;;;;;;;;;;9.20;99.90;;;;;;5053863;28;19913;-74
2022/10/09 03:45:34;;;;;;;;;;;9.10;99.90;;;;;;5053263;28;19909;-74
2022/10/09 03:48:00;;;;;;;;;;;9.10;99.90;;;;;;5053126;28;19917;-76
2022/10/09 03:50:26;;;;;;;;;;;9.10;99.90;;;;;;5053355;28;19995;-76
2022/10/09 03:52:51;;;;;;;;;;;8.90;99.90;;;;;;5053251;28;19908;-74
2022/10/09 03:55:17;;;;;;;;;;;8.90;99.90;;;;;;5052951;28;19912;-76
2022/10/09 03:57:42;;;;;;;;;;;8.90;99.90;;;;;;5053397;28;19944;-74
2022/10/09 04:00:08;;;;;;;;;;;9.00;99.90;;;;;;5053422;28;20373;-75
2022/10/09 04:02:34;;;;;;;;;;;8.90;99.90;;;;;;5053178;28;19955;-73
2022/10/09 04:04:59;;;;;;;;;;;8.90;99.90;;;;;;5053194;28;19909;-76
2022/10/09 04:07:25;;;;;;;;;;;8.90;99.90;;;;;;5053083;28;19978;-74
2022/10/09 04:09:50;;;;;;;;;;;8.80;99.90;;;;;;5053238;28;19908;-74
2022/10/09 04:12:16;;;;;;;;;;;8.70;99.90;;;;;;5053334;28;19941;-76
2022/10/09 04:14:42;;;;;;;;;;;8.70;99.90;;;;;;5052907;28;20277;-73
2022/10/09 04:17:07;;;;;;;;;;;8.60;99.90;;;;;;5053039;28;19908;-75
2022/10/09 04:19:33;;;;;;;;;;;8.50;99.90;;;;;;5052994;28;20008;-75
2022/10/09 04:21:59;;;;;;;;;;;8.50;99.90;;;;;;5053340;28;20293;-74
2022/10/09 04:24:24;;;;;;;;;;;8.60;99.90;;;;;;5053103;28;19916;-77
2022/10/09 04:26:50;;;;;;;;;;;8.60;99.90;;;;;;5053051;28;19921;-73
2022/10/09 04:29:15;;;;;;;;;;;8.60;99.90;;;;;;5056518;28;19916;-75
2022/10/09 04:31:41;;;;;;;;;;;8.60;99.90;;;;;;5056964;28;19909;-76
2022/10/09 04:34:07;;;;;;;;;;;8.60;99.90;;;;;;5056653;28;20396;-76
2022/10/09 04:36:32;;;;;;;;;;;8.50;99.90;;;;;;5056432;28;19919;-77
2022/10/09 04:38:58;;;;;;;;;;;8.50;99.90;;;;;;5056520;28;19916;-74
2022/10/09 04:41:23;;;;;;;;;;;8.50;99.90;;;;;;5056386;28;19909;-76
2022/10/09 04:43:52;;;;;;;;;;;8.40;99.90;;;;;;5056845;28;19915;-73
2022/10/09 04:46:18;;;;;;;;;;;8.40;99.90;;;;;;5054978;28;19966;-75
2022/10/09 04:48:44;;;;;;;;;;;8.40;99.90;;;;;;5056074;28;19920;-77
2022/10/09 04:51:10;;;;;;;;;;;8.30;99.90;;;;;;5056220;28;19916;-74
2022/10/09 04:53:37;;;;;;;;;;;8.20;99.90;;;;;;5056622;28;19908;-73
2022/10/09 04:56:04;;;;;;;;;;;8.20;99.90;;;;;;5056154;28;19956;-75
2022/10/09 04:58:30;;;;;;;;;;;8.30;99.90;;;;;;5056179;28;19908;-74
2022/10/09 05:00:55;;;;;;;;;;;8.30;99.90;;;;;;5056005;28;19965;-76
2022/10/09 05:03:21;;;;;;;;;;;8.20;99.90;;;;;;5055993;28;19909;-77
2022/10/09 05:05:47;;;;;;;;;;;8.00;99.90;;;;;;5055989;28;20000;-76
2022/10/09 05:08:12;;;;;;;;;;;7.90;99.90;;;;;;5055868;28;19917;-74
2022/10/09 05:10:38;;;;;;;;;;;7.90;99.90;;;;;;5055965;28;20423;-74
2022/10/09 05:13:04;;;;;;;;;;;7.90;99.90;;;;;;5056088;28;19908;-73
2022/10/09 05:15:30;;;;;;;;;;;7.80;99.90;;;;;;5055660;28;19919;-73
2022/10/09 05:17:55;;;;;;;;;;;7.80;99.90;;;;;;5055728;28;19909;-74
2022/10/09 05:20:21;;;;;;;;;;;7.90;99.90;;;;;;5055833;28;19909;-76
2022/10/09 05:22:46;;;;;;;;;;;7.90;99.90;;;;;;5055599;28;19963;-76
2022/10/09 05:25:12;;;;;;;;;;;8.00;99.90;;;;;;5055563;28;20415;-73
2022/10/09 05:27:38;;;;;;;;;;;8.00;99.90;;;;;;5055544;28;19909;-72
2022/10/09 05:30:04;;;;;;;;;;;8.00;99.90;;;;;;5055507;28;19909;-74
2022/10/09 05:32:30;;;;;;;;;;;8.00;99.90;;;;;;5055462;28;20003;-76
2022/10/09 05:34:55;;;;;;;;;;;7.90;99.90;;;;;;5055322;28;19986;-74
2022/10/09 05:37:21;;;;;;;;;;;7.90;99.90;;;;;;5055321;28;19908;-73
2022/10/09 05:39:47;;;;;;;;;;;7.90;99.90;;;;;;5054348;28;20365;-74
2022/10/09 05:42:12;;;;;;;;;;;7.80;99.90;;;;;;5055272;28;19909;-74
2022/10/09 05:44:38;;;;;;;;;;;7.80;99.90;;;;;;5056250;28;19932;-76
2022/10/09 05:47:03;;;;;;;;;;;7.50;99.90;;;;;;5055118;28;19919;-76
2022/10/09 05:49:29;;;;;;;;;;;7.30;99.90;;;;;;5054847;28;19929;-77
2022/10/09 05:51:54;;;;;;;;;;;7.10;99.90;;;;;;5055082;28;19909;-73
2022/10/09 05:54:20;;;;;;;;;;;7.30;99.90;;;;;;5055372;28;20448;-76
2022/10/09 05:56:46;;;;;;;;;;;7.50;99.90;;;;;;5055033;28;20373;-74
2022/10/09 05:59:13;;;;;;;;;;;7.60;99.90;;;;;;5053670;28;19913;-75
2022/10/09 06:01:40;;;;;;;;;;;7.60;99.90;;;;;;5054942;28;19909;-75
2022/10/09 06:04:10;;;;;;;;;;;7.50;99.90;;;;;;5053460;28;20286;-73
2022/10/09 06:06:36;;;;;;;;;;;7.40;99.90;;;;;;5054773;28;19965;-76
2022/10/09 06:09:02;;;;;;;;;;;7.30;99.90;;;;;;5054777;28;19916;-75
2022/10/09 06:11:32;;;;;;;;;;;7.30;99.90;;;;;;5054796;28;19908;-75
2022/10/09 06:13:59;;;;;;;;;;;7.30;99.90;;;;;;5054827;28;19916;-74
2022/10/09 06:16:26;;;;;;;;;;;7.40;99.90;;;;;;5053212;28;20403;-76
2022/10/09 06:18:52;;;;;;;;;;;7.50;99.90;;;;;;5054806;28;19908;-75
2022/10/09 06:21:18;;;;;;;;;;;7.60;99.90;;;;;;5054641;28;19909;-73
2022/10/09 06:23:47;;;;;;;;;;;7.50;99.90;;;;;;5054518;28;20351;-73
2022/10/09 06:26:13;;;;;;;;;;;7.60;99.90;;;;;;5054472;28;20339;-76
2022/10/09 06:28:39;;;;;;;;;;;7.50;99.90;;;;;;5054376;28;19909;-76
2022/10/09 06:31:06;;;;;;;;;;;7.60;99.90;;;;;;5054477;28;19944;-75
2022/10/09 06:33:33;;;;;;;;;;;7.70;99.90;;;;;;5054254;28;19908;-74
2022/10/09 06:36:02;;;;;;;;;;;7.70;99.90;;;;;;5054230;28;20365;-73
2022/10/09 06:38:28;;;;;;;;;;;7.60;99.90;;;;;;5054338;28;19991;-77
2022/10/09 06:40:54;;;;;;;;;;;7.50;99.90;;;;;;5054305;28;19944;-73
2022/10/09 06:43:19;;;;;;;;;;;7.60;99.90;;;;;;5054207;28;19992;-75
2022/10/09 06:45:45;;;;;;;;;;;7.70;99.90;;;;;;5055034;28;19909;-74
2022/10/09 06:48:10;;;;;;;;;;;7.80;99.90;;;;;;5053946;28;19976;-75
2022/10/09 06:50:36;;;;;;;;;;;7.90;99.90;;;;;;5053929;28;19976;-76
2022/10/09 06:53:04;;;;;;;;;;;7.90;99.90;;;;;;5053988;28;20316;-77
2022/10/09 06:55:30;;;;;;;;;;;8.10;99.90;;;;;;5052587;28;19920;-75
2022/10/09 06:57:56;;;;;;;;;;;8.30;99.90;;;;;;5053926;28;19908;-76
2022/10/09 07:00:21;;;;;;;;;;;8.50;99.90;;;;;;5053976;28;19916;-76
2022/10/09 07:02:48;;;;;;;;;;;8.80;99.90;;;;;;5053937;28;19908;-73
2022/10/09 07:05:14;;;;;;;;;;;9.20;99.90;;;;;;5053752;28;19909;-75
2022/10/09 07:07:39;;;;;;;;;;;9.60;99.90;;;;;;5053674;28;19909;-72
2022/10/09 07:10:05;;;;;;;;;;;10.10;99.10;;;;;;5053740;28;19916;-76
2022/10/09 07:12:33;;;;;;;;;;;10.50;99.20;;;;;;5053654;28;19958;-73
2022/10/09 07:14:58;;;;;;;;;;;11.10;99.50;;;;;;5053723;28;20449;-75
2022/10/09 07:17:25;;;;;;;;;;;11.60;99.80;;;;;;5053685;28;20003;-76
2022/10/09 07:19:51;;;;;;;;;;;12.10;97.90;;;;;;5053617;28;19913;-75
2022/10/09 07:22:16;;;;;;;;;;;12.50;97.50;;;;;;5053820;28;19909;-75
2022/10/09 07:24:42;;;;;;;;;;;13.10;98.10;;;;;;5053560;28;19909;-73
2022/10/09 07:27:07;;;;;;;;;;;13.60;98.70;;;;;;5053525;28;19951;-76
2022/10/09 07:29:33;;;;;;;;;;;14.10;96.80;;;;;;5053538;28;20361;-76
2022/10/09 07:31:59;;;;;;;;;;;14.50;94.30;;;;;;5053508;28;19909;-74
2022/10/09 07:34:24;;;;;;;;;;;14.80;93.20;;;;;;5053425;28;19909;-76
2022/10/09 07:36:50;;;;;;;;;;;15.10;93.50;;;;;;5053434;28;19920;-75
2022/10/09 07:39:18;;;;;;;;;;;15.70;92.40;;;;;;5053415;28;19916;-76
2022/10/09 07:41:43;;;;;;;;;;;15.70;90.30;;;;;;5052068;28;20351;-76
2022/10/09 07:44:11;;;;;;;;;;;15.30;90.40;;;;;;5054052;28;19947;-76
2022/10/09 07:46:36;;;;;;;;;;;15.70;91.20;;;;;;5053233;28;19955;-75
2022/10/09 07:49:02;;;;;;;;;;;16.20;90.60;;;;;;5051877;28;19925;-75
2022/10/09 07:51:28;;;;;;;;;;;16.20;89.60;;;;;;5053486;28;19951;-77
2022/10/09 07:53:55;;;;;;;;;;;16.30;89.40;;;;;;5052000;28;19909;-77
2022/10/09 07:56:21;;;;;;;;;;;16.50;89.70;;;;;;5053295;28;20373;-74
2022/10/09 07:58:48;;;;;;;;;;;16.70;89.30;;;;;;5053271;28;20003;-74
2022/10/09 08:01:14;;;;;;;;;;;17.10;87.00;;;;;;5053483;28;19909;-77
2022/10/09 08:03:39;;;;;;;;;;;17.00;87.10;;;;;;5056370;28;19909;-77
2022/10/09 08:06:05;;;;;;;;;;;17.40;87.30;;;;;;5057187;28;19955;-77
2022/10/09 08:08:31;;;;;;;;;;;17.70;84.10;;;;;;5057024;28;19944;-77
2022/10/09 08:10:57;;;;;;;;;;;17.50;85.00;;;;;;5056992;28;19999;-76
2022/10/09 08:13:22;;;;;;;;;;;17.80;84.30;;;;;;5057139;28;19909;-74
2022/10/09 08:15:48;;;;;;;;;;;18.30;83.30;;;;;;5056991;28;20369;-77
2022/10/09 08:18:14;;;;;;;;;;;19.10;80.60;;;;;;5056868;28;19909;-76
2022/10/09 08:20:39;;;;;;;;;;;19.40;80.00;;;;;;5056844;28;19913;-75
2022/10/09 08:23:05;;;;;;;;;;;19.30;77.80;;;;;;5056756;28;19959;-76
2022/10/09 08:25:35;;;;;;;;;;;19.70;79.40;;;;;;5056825;28;19979;-74
2022/10/09 08:28:00;;;;;;;;;;;20.10;76.20;;;;;;5056684;28;19913;-76
2022/10/09 08:30:26;;;;;;;;;;;20.60;75.90;;;;;;5056606;28;19928;-76
2022/10/09 08:32:52;;;;;;;;;;;20.60;74.40;;;;;;5056566;28;19913;-77
2022/10/09 08:35:17;;;;;;;;;;;20.60;73.80;;;;;;5056815;28;19912;-77
2022/10/09 08:37:43;;;;;;;;;;;20.40;73.40;;;;;;5056498;28;20292;-74
2022/10/09 08:40:14;;;;;;;;;;;20.80;72.70;;;;;;5056539;28;19963;-77
2022/10/09 08:42:46;;;;;;;;;;;20.80;70.80;;;;;;5055843;28;20010;-76
2022/10/09 08:45:16;;;;;;;;;;;20.70;71.90;;;;;;5056841;28;20440;-76
2022/10/09 08:47:44;;;;;;;;;;;22.00;70.10;;;;;;5056137;28;19909;-74
2022/10/09 08:50:13;;;;;;;;;;;23.20;67.00;;;;;;5056313;28;20368;-75
2022/10/09 08:52:41;;;;;;;;;;;23.70;65.00;;;;;;5056597;28;19916;-76
2022/10/09 08:55:22;;;;;;;;;;;23.80;63.20;;;;;;5054811;28;20347;-76
2022/10/09 08:57:54;;;;;;;;;;;24.80;61.60;;;;;;5056215;28;19909;-77
2022/10/09 09:00:22;;;;;;;;;;;25.00;59.50;;;;;;5056022;28;19912;-74
2022/10/09 09:02:48;;;;;;;;;;;24.50;57.20;;;;;;5056319;28;19909;-75
2022/10/09 09:05:20;;;;;;;;;;;24.90;57.10;;;;;;5056097;28;19916;-76
2022/10/09 09:08:13;;;;;;;;;;;24.80;58.00;;;;;;5056146;28;19973;-78
2022/10/09 09:10:41;;;;;;;;;;;24.90;57.00;;;;;;5056204;28;20277;-78
2022/10/09 09:13:15;;;;;;;;;;;24.90;56.30;;;;;;5055692;28;19913;-74
2022/10/09 09:16:00;;;;;;;;;;;25.80;55.80;;;;;;5055380;28;19939;-76
2022/10/09 09:18:28;;;;;;;;;;;26.60;55.90;;;;;;5055792;28;19908;-75
2022/10/09 09:20:55;;;;;;;;;;;26.40;52.90;;;;;;5055509;28;19940;-76
2022/10/09 09:23:36;;;;;;;;;;;26.50;53.60;;;;;;5055783;28;20351;-78
2022/10/09 09:26:08;;;;;;;;;;;26.60;52.70;;;;;;5055668;28;19913;-73
2022/10/09 09:28:33;;;;;;;;;;;27.30;52.00;;;;;;5055479;28;19932;-76
2022/10/09 09:31:01;;;;;;;;;;;27.00;51.80;;;;;;5055308;28;20370;-73
2022/10/09 09:33:27;;;;;;;;;;;27.60;51.60;;;;;;5055365;28;20336;-75
2022/10/09 09:36:08;;;;;;;;;;;26.80;51.60;;;;;;5055326;28;19966;-77
2022/10/09 09:38:34;;;;;;;;;;;27.00;51.70;;;;;;5055600;28;19909;-78
2022/10/09 09:41:00;;;;;;;;;;;27.60;51.60;;;;;;5055288;28;19908;-73
2022/10/09 09:43:25;;;;;;;;;;;28.80;50.30;;;;;;5055285;28;20397;-72
2022/10/09 09:45:52;;;;;;;;;;;28.10;50.50;;;;;;5055699;28;19909;-73
2022/10/09 09:48:38;;;;;;;;;;;28.30;49.40;;;;;;5054840;28;19916;-75
2022/10/09 09:51:05;;;;;;;;;;;27.90;49.30;;;;;;5054343;28;20272;-73
2022/10/09 09:53:36;;;;;;;;;;;27.10;49.60;;;;;;5055037;28;20305;-76
2022/10/09 09:56:02;;;;;;;;;;;28.10;49.40;;;;;;5054831;28;19919;-75
2022/10/09 09:58:38;;;;;;;;;;;28.60;48.90;;;;;;5055491;28;20301;-76
2022/10/09 10:01:05;;;;;;;;;;;29.20;48.50;;;;;;5054926;28;19913;-73
2022/10/09 10:03:31;;;;;;;;;;;28.40;48.00;;;;;;5053484;28;19959;-74
2022/10/09 10:05:57;;;;;;;;;;;29.00;48.40;;;;;;5054969;28;19947;-73
2022/10/09 10:08:25;;;;;;;;;;;29.80;49.00;;;;;;5055113;28;19952;-76
2022/10/09 10:10:52;;;;;;;;;;;30.00;47.50;;;;;;5054818;28;20015;-76
2022/10/09 10:13:19;;;;;;;;;;;31.00;47.30;;;;;;5054845;28;19909;-74
2022/10/09 10:15:50;;;;;;;;;;;31.10;47.40;;;;;;5054532;28;19951;-74
2022/10/09 10:18:16;;;;;;;;;;;30.30;46.30;;;;;;5054757;28;19916;-75
2022/10/09 10:20:43;;;;;;;;;;;30.00;46.50;;;;;;5054604;28;19955;-76
2022/10/09 10:23:29;;;;;;;;;;;29.90;46.60;;;;;;5054434;28;19909;-74
2022/10/09 10:25:56;;;;;;;;;;;29.60;47.90;;;;;;5054090;28;19932;-76
2022/10/09 10:28:26;;;;;;;;;;;30.40;47.50;;;;;;5054540;28;19916;-74
2022/10/09 10:30:54;;;;;;;;;;;31.00;48.30;;;;;;5054884;28;19909;-77
2022/10/09 10:33:30;;;;;;;;;;;32.30;46.70;;;;;;5054388;28;20403;-75
2022/10/09 10:35:57;;;;;;;;;;;33.00;45.90;;;;;;5054207;28;20047;-76
2022/10/09 10:38:28;;;;;;;;;;;32.70;46.40;;;;;;5054051;28;19932;-77
2022/10/09 10:40:57;;;;;;;;;;;34.00;46.00;;;;;;5054016;28;20285;-75
2022/10/09 10:43:29;;;;;;;;;;;34.50;44.50;;;;;;5054014;28;19916;-76
2022/10/09 10:46:01;;;;;;;;;;;33.20;44.50;;;;;;5054391;28;20407;-77
2022/10/09 10:48:32;;;;;;;;;;;33.00;45.00;;;;;;5054145;28;19928;-75
2022/10/09 10:51:03;;;;;;;;;;;33.30;45.60;;;;;;5054265;28;19912;-74
2022/10/09 10:53:28;;;;;;;;;;;35.40;44.70;;;;;;5053825;28;19916;-75
2022/10/09 10:55:57;;;;;;;;;;;35.30;43.50;;;;;;5053713;28;20289;-75
2022/10/09 10:58:22;;;;;;;;;;;33.20;43.30;;;;;;5054291;28;19932;-75
2022/10/09 11:01:03;;;;;;;;;;;34.80;43.40;;;;;;5053980;28;20373;-76
2022/10/09 11:03:47;;;;;;;;;;;33.70;43.30;;;;;;5053998;28;19998;-75
2022/10/09 11:06:39;;;;;;;;;;;33.90;42.60;;;;;;5053714;28;19958;-75
2022/10/09 11:09:17;;;;;;;;;;;33.80;43.00;;;;;;5022980;28;20448;-78
2022/10/09 11:11:48;;;;;;;;;;;34.20;42.90;;;;;;5053608;28;20006;-76
2022/10/09 11:14:32;;;;;;;;;;;34.30;42.40;;;;;;5052061;28;20334;-77
2022/10/09 11:17:05;;;;;;;;;;;35.50;42.70;;;;;;5053776;28;19912;-77
2022/10/09 11:19:49;;;;;;;;;;;36.10;41.80;;;;;;5053485;28;19913;-76
2022/10/09 11:22:21;;;;;;;;;;;36.40;41.40;;;;;;5053858;28;19908;-79
2022/10/09 11:24:55;;;;;;;;;;;37.10;40.80;;;;;;5053530;28;19958;-75
2022/10/09 11:27:40;;;;;;;;;;;35.60;39.60;;;;;;5053465;28;20365;-75
2022/10/09 11:30:09;;;;;;;;;;;34.10;41.70;;;;;;5053469;28;19909;-74
2022/10/09 11:32:41;;;;;;;;;;;34.90;40.60;;;;;;5053435;28;20339;-77
2022/10/09 11:35:14;;;;;;;;;;;35.60;41.30;;;;;;5053622;28;20262;-75
2022/10/09 11:37:41;;;;;;;;;;;37.20;41.30;;;;;;5054949;28;19909;-75
2022/10/09 11:40:13;;;;;;;;;;;37.90;40.10;;;;;;5057640;28;20003;-73
2022/10/09 11:42:39;;;;;;;;;;;37.70;39.80;;;;;;5057510;28;19913;-74
2022/10/09 11:45:26;;;;;;;;;;;37.30;39.40;;;;;;5058168;28;19909;-76
2022/10/09 11:48:06;;;;;;;;;;;38.00;39.10;;;;;;5057194;28;19912;-75
2022/10/09 11:50:38;;;;;;;;;;;38.20;39.00;;;;;;5057433;28;20033;-75
2022/10/09 11:53:04;;;;;;;;;;;39.50;38.90;;;;;;5057861;28;19915;-77
2022/10/09 11:55:31;;;;;;;;;;;38.60;37.40;;;;;;5057372;28;19999;-78
2022/10/09 11:58:13;;;;;;;;;;;38.00;37.60;;;;;;5057239;28;19909;-74
2022/10/09 12:00:40;;;;;;;;;;;38.10;37.90;;;;;;5057204;28;19948;-75
2022/10/09 12:03:06;;;;;;;;;;;39.30;38.00;;;;;;5057332;28;19908;-75
2022/10/09 12:05:42;;;;;;;;;;;39.40;37.50;;;;;;5057195;28;19913;-76
2022/10/09 12:08:10;;;;;;;;;;;39.70;37.40;;;;;;5057055;28;19939;-76
2022/10/09 12:10:38;;;;;;;;;;;38.00;36.80;;;;;;5056974;28;20042;-76
2022/10/09 12:13:05;;;;;;;;;;;37.60;37.60;;;;;;5057169;28;19954;-77
2022/10/09 12:15:38;;;;;;;;;;;38.80;38.20;;;;;;5056882;28;20392;-75
2022/10/09 12:18:24;;;;;;;;;;;39.30;37.40;;;;;;5056997;28;19916;-74
2022/10/09 12:20:51;;;;;;;;;;;38.60;36.80;;;;;;5056820;28;19975;-75
2022/10/09 12:23:20;;;;;;;;;;;40.00;36.70;;;;;;5056738;28;19962;-76
2022/10/09 12:25:46;;;;;;;;;;;40.70;35.60;;;;;;5056837;28;19913;-75
2022/10/09 12:28:21;;;;;;;;;;;40.60;35.40;;;;;;5056763;28;19935;-76
2022/10/09 12:30:47;;;;;;;;;;;40.60;34.60;;;;;;5056603;28;19916;-75
2022/10/09 12:33:13;;;;;;;;;;;39.20;34.20;;;;;;5056529;28;20009;-78
2022/10/09 12:35:40;;;;;;;;;;;38.40;34.30;;;;;;5056451;28;19955;-78
2022/10/09 12:38:35;;;;;;;;;;;38.40;34.50;;;;;;5056422;28;19909;-78
2022/10/09 12:41:02;;;;;;;;;;;38.00;35.10;;;;;;5038781;28;19909;-75
2022/10/09 12:43:29;;;;;;;;;;;37.70;35.80;;;;;;5056388;28;19916;-77
2022/10/09 12:45:55;;;;;;;;;;;38.10;35.20;;;;;;5056618;28;19913;-75
2022/10/09 12:48:21;;;;;;;;;;;37.10;35.40;;;;;;5055782;28;20016;-75
2022/10/09 12:50:47;;;;;;;;;;;38.00;34.90;;;;;;5056532;28;20291;-78
2022/10/09 12:53:17;;;;;;;;;;;37.60;35.30;;;;;;5056200;28;19913;-78
2022/10/09 12:55:47;;;;;;;;;;;37.80;35.30;;;;;;5056092;28;19915;-76
2022/10/09 12:58:24;;;;;;;;;;;36.70;36.00;;;;;;5056072;28;19963;-76
2022/10/09 13:00:52;;;;;;;;;;;36.60;36.20;;;;;;5056106;28;19908;-78
2022/10/09 13:03:22;;;;;;;;;;;36.90;36.50;;;;;;5056315;28;20008;-75
2022/10/09 13:05:47;;;;;;;;;;;37.50;36.20;;;;;;5055881;28;19960;-77
2022/10/09 13:08:33;;;;;;;;;;;39.60;35.60;;;;;;5055951;28;20408;-74
2022/10/09 13:11:11;;;;;;;;;;;39.60;36.20;;;;;;5056277;28;19956;-76
2022/10/09 13:13:37;;;;;;;;;;;40.40;36.10;;;;;;5056093;28;19908;-75
2022/10/09 13:16:05;;;;;;;;;;;40.00;35.80;;;;;;5055908;28;19909;-74
2022/10/09 13:18:31;;;;;;;;;;;38.90;36.30;;;;;;5055769;28;19913;-74
2022/10/09 13:20:58;;;;;;;;;;;38.20;36.80;;;;;;5056097;28;20291;-76
2022/10/09 13:23:27;;;;;;;;;;;37.60;36.80;;;;;;5055937;28;19913;-76
2022/10/09 13:25:53;;;;;;;;;;;36.50;37.30;;;;;;5055697;28;19913;-74
2022/10/09 13:28:19;;;;;;;;;;;35.20;37.90;;;;;;5055498;28;19915;-74
2022/10/09 13:30:44;;;;;;;;;;;33.10;38.40;;;;;;5055453;28;19915;-76
2022/10/09 13:33:14;;;;;;;;;;;31.50;40.90;;;;;;5055396;28;20377;-75
2022/10/09 13:35:40;;;;;;;;;;;31.10;41.20;;;;;;5055554;28;20404;-74
2022/10/09 13:38:05;;;;;;;;;;;30.80;41.80;;;;;;5055287;28;19909;-77
2022/10/09 13:40:31;;;;;;;;;;;31.10;41.20;;;;;;5055675;28;19913;-75
2022/10/09 13:43:00;;;;;;;;;;;30.50;41.70;;;;;;5055409;28;19915;-75
2022/10/09 13:45:26;;;;;;;;;;;29.30;41.40;;;;;;5055549;28;19973;-75
2022/10/09 13:47:51;;;;;;;;;;;29.10;42.40;;;;;;5055076;28;19916;-76
2022/10/09 13:50:18;;;;;;;;;;;28.50;43.10;;;;;;5055129;28;19967;-74
2022/10/09 13:52:44;;;;;;;;;;;28.40;43.40;;;;;;5055475;28;19909;-74
2022/10/09 13:55:10;;;;;;;;;;;28.70;43.50;;;;;;5055099;28;20003;-74
2022/10/09 13:57:36;;;;;;;;;;;29.20;43.10;;;;;;5055002;28;19909;-75
2022/10/09 14:00:02;;;;;;;;;;;30.40;42.50;;;;;;5054196;28;19916;-74
2022/10/09 14:02:28;;;;;;;;;;;31.10;42.10;;;;;;5054875;28;19909;-73
2022/10/09 14:04:54;;;;;;;;;;;30.50;42.00;;;;;;5055200;28;19916;-76
2022/10/09 14:07:19;;;;;;;;;;;31.20;42.00;;;;;;5054681;28;20478;-74
2022/10/09 14:09:45;;;;;;;;;;;31.30;41.20;;;;;;5053463;28;19916;-74
2022/10/09 14:12:10;;;;;;;;;;;31.20;41.80;;;;;;5054809;28;19913;-73
2022/10/09 14:14:36;;;;;;;;;;;32.30;41.60;;;;;;5054634;28;20385;-75
2022/10/09 14:17:01;;;;;;;;;;;34.10;40.70;;;;;;5054900;28;19919;-75
2022/10/09 14:19:27;;;;;;;;;;;35.10;39.40;;;;;;5054513;28;19963;-76
2022/10/09 14:21:53;;;;;;;;;;;36.90;39.30;;;;;;5054451;28;20383;-73
2022/10/09 14:24:19;;;;;;;;;;;39.70;37.20;;;;;;5054562;28;19909;-76
2022/10/09 14:26:44;;;;;;;;;;;39.70;36.20;;;;;;5054288;28;19919;-74